createdAt,value
2017-12-04T00:00:46.704Z,70.84
2017-12-04T00:03:16.406Z,71.04
2017-12-04T00:05:43.973Z,70.42
2017-12-04T00:08:11.588Z,70.21
2017-12-04T00:10:39.429Z,70.23
2017-12-04T00:13:07.013Z,70.44
2017-12-04T00:15:34.702Z,70.38
2017-12-04T00:18:02.321Z,69.89
2017-12-04T00:20:30.109Z,70.99
2017-12-04T00:22:57.723Z,71.61
2017-12-04T00:25:25.467Z,70.86
2017-12-04T00:27:53.253Z,71.40
2017-12-04T00:30:20.881Z,71.12
2017-12-04T00:32:48.822Z,70.91
2017-12-04T00:35:16.616Z,70.80
2017-12-04T00:37:44.498Z,70.45
2017-12-04T00:40:12.357Z,70.93
2017-12-04T00:42:39.931Z,70.61
2017-12-04T00:45:07.709Z,70.40
2017-12-04T00:47:35.463Z,70.57
2017-12-04T00:50:03.040Z,70.51
2017-12-04T00:52:30.642Z,70.73
2017-12-04T00:54:58.198Z,70.40
2017-12-04T00:57:26.021Z,70.19
2017-12-04T00:59:53.624Z,69.97
2017-12-04T01:02:21.454Z,69.83
2017-12-04T01:04:51.148Z,69.99
2017-12-04T01:07:24.263Z,70.36
2017-12-04T01:09:52.255Z,69.70
2017-12-04T01:12:19.839Z,70.00
2017-12-04T01:14:47.446Z,69.54
2017-12-04T01:17:15.276Z,68.83
2017-12-04T01:19:42.832Z,67.79
2017-12-04T01:22:10.694Z,67.82
2017-12-04T01:24:38.479Z,68.30
2017-12-04T01:27:06.252Z,68.35
2017-12-04T01:29:33.850Z,68.26
2017-12-04T01:32:01.454Z,70.68
2017-12-04T01:34:29.012Z,70.42
2017-12-04T01:36:56.585Z,69.42
2017-12-04T01:39:24.218Z,70.12
2017-12-04T01:41:51.770Z,69.83
2017-12-04T01:44:19.314Z,70.16
2017-12-04T01:46:46.901Z,69.56
2017-12-04T01:49:14.576Z,69.22
2017-12-04T01:51:42.197Z,70.79
2017-12-04T01:54:09.826Z,70.51
2017-12-04T01:56:37.461Z,71.40
2017-12-04T01:59:05.107Z,70.19
2017-12-04T02:01:32.701Z,70.12
2017-12-04T02:04:00.287Z,70.63
2017-12-04T02:06:27.875Z,71.70
2017-12-04T02:08:55.872Z,71.93
2017-12-04T02:11:23.474Z,72.16
2017-12-04T02:13:51.033Z,71.29
2017-12-04T02:16:18.634Z,70.27
2017-12-04T02:18:46.496Z,71.46
2017-12-04T02:21:14.280Z,71.78
2017-12-04T02:23:41.905Z,71.03
2017-12-04T02:26:09.505Z,70.60
2017-12-04T02:28:37.302Z,70.54
2017-12-04T02:31:05.436Z,70.09
2017-12-04T02:33:33.081Z,69.25
2017-12-04T02:36:01.409Z,69.70
2017-12-04T02:38:29.054Z,68.75
2017-12-04T02:40:57.104Z,68.66
2017-12-04T02:43:24.731Z,68.28
2017-12-04T02:45:53.176Z,68.24
2017-12-04T02:48:20.965Z,70.01
2017-12-04T02:50:48.805Z,68.81
2017-12-04T02:53:16.470Z,69.19
2017-12-04T02:55:44.060Z,69.34
2017-12-04T02:58:11.918Z,69.33
2017-12-04T03:00:39.525Z,69.70
2017-12-04T03:03:07.384Z,69.86
2017-12-04T03:05:35.839Z,70.54
2017-12-04T03:08:03.955Z,70.76
2017-12-04T03:10:32.154Z,70.16
2017-12-04T03:12:59.706Z,70.63
2017-12-04T03:15:27.321Z,70.24
2017-12-04T03:17:55.135Z,70.23
2017-12-04T03:20:22.755Z,70.80
2017-12-04T03:22:50.402Z,70.87
2017-12-04T03:25:18.218Z,70.76
2017-12-04T03:27:45.865Z,70.80
2017-12-04T03:30:13.463Z,70.69
2017-12-04T03:32:41.317Z,71.00
2017-12-04T03:35:08.930Z,71.94
2017-12-04T03:37:36.607Z,71.10
2017-12-04T03:40:04.227Z,70.74
2017-12-04T03:42:31.857Z,70.88
2017-12-04T03:44:59.463Z,71.17
2017-12-04T03:47:27.129Z,70.97
2017-12-04T03:49:54.747Z,71.17
2017-12-04T03:52:22.528Z,71.08
2017-12-04T03:54:50.293Z,71.63
2017-12-04T03:57:17.825Z,71.33
2017-12-04T03:59:45.413Z,70.85
2017-12-04T04:02:13.021Z,71.25
2017-12-04T04:04:40.779Z,70.80
2017-12-04T04:07:08.743Z,71.09
2017-12-04T04:09:36.328Z,71.39
2017-12-04T04:12:04.083Z,71.68
2017-12-04T04:14:31.881Z,71.92
2017-12-04T04:16:59.467Z,72.11
2017-12-04T04:19:27.086Z,73.21
2017-12-04T04:21:54.685Z,72.83
2017-12-04T04:24:22.289Z,73.34
2017-12-04T04:26:49.859Z,72.54
2017-12-04T04:29:18.229Z,72.89
2017-12-04T04:31:45.981Z,72.77
2017-12-04T04:34:13.800Z,72.14
2017-12-04T04:36:41.613Z,72.90
2017-12-04T04:39:09.423Z,72.46
2017-12-04T04:41:37.003Z,71.99
2017-12-04T04:44:04.569Z,72.21
2017-12-04T04:46:32.413Z,72.24
2017-12-04T04:49:00.199Z,72.20
2017-12-04T04:51:27.782Z,73.88
2017-12-04T04:53:55.616Z,72.93
2017-12-04T04:56:23.205Z,73.10
2017-12-04T04:58:50.999Z,71.80
2017-12-04T05:01:18.613Z,71.56
2017-12-04T05:03:46.160Z,71.78
2017-12-04T05:06:13.926Z,72.64
2017-12-04T05:08:41.551Z,72.41
2017-12-04T05:11:09.126Z,72.36
2017-12-04T05:13:36.947Z,72.43
2017-12-04T05:16:04.598Z,71.96
2017-12-04T05:18:32.431Z,71.38
2017-12-04T05:21:00.209Z,71.61
2017-12-04T05:23:27.813Z,71.88
2017-12-04T05:25:55.362Z,71.97
2017-12-04T05:28:23.238Z,72.44
2017-12-04T05:30:51.054Z,72.02
2017-12-04T05:33:18.605Z,72.32
2017-12-04T05:35:46.609Z,71.92
2017-12-04T05:38:14.214Z,71.96
2017-12-04T05:40:41.781Z,71.68
2017-12-04T05:43:10.290Z,72.33
2017-12-04T05:45:37.911Z,93.84
2017-12-04T05:48:05.507Z,90.77
2017-12-04T05:50:33.293Z,80.89
2017-12-04T05:53:00.885Z,74.30
2017-12-04T05:55:28.581Z,72.22
2017-12-04T05:57:56.369Z,71.33
2017-12-04T06:00:23.966Z,71.57
2017-12-04T06:02:51.470Z,72.98
2017-12-04T06:05:19.084Z,71.90
2017-12-04T06:07:46.651Z,71.80
2017-12-04T06:10:14.212Z,71.95
2017-12-04T06:12:42.106Z,71.10
2017-12-04T06:15:09.687Z,71.57
2017-12-04T06:17:37.432Z,71.50
2017-12-04T06:20:04.997Z,72.28
2017-12-04T06:22:32.562Z,72.35
2017-12-04T06:25:01.289Z,72.60
2017-12-04T06:27:29.138Z,72.50
2017-12-04T06:29:56.737Z,72.67
2017-12-04T06:32:24.305Z,72.43
2017-12-04T06:34:51.860Z,72.18
2017-12-04T06:37:19.425Z,72.47
2017-12-04T06:39:47.212Z,72.58
2017-12-04T06:42:15.642Z,72.69
2017-12-04T06:44:43.160Z,72.51
2017-12-04T06:47:10.710Z,72.52
2017-12-04T06:49:38.222Z,72.33
2017-12-04T06:52:05.787Z,72.89
2017-12-04T06:54:33.352Z,72.68
2017-12-04T06:57:00.918Z,72.61
2017-12-04T06:59:28.890Z,71.52
2017-12-04T07:01:56.573Z,72.34
2017-12-04T07:04:24.348Z,72.03
2017-12-04T07:06:51.963Z,71.52
2017-12-04T07:09:19.534Z,71.18
2017-12-04T07:11:47.113Z,71.38
2017-12-04T07:14:14.877Z,71.33
2017-12-04T07:16:42.653Z,71.14
2017-12-04T07:19:10.421Z,70.42
2017-12-04T07:21:37.961Z,70.06
2017-12-04T07:24:05.830Z,69.87
2017-12-04T07:26:33.413Z,69.65
2017-12-04T07:29:01.154Z,70.49
2017-12-04T07:31:28.769Z,70.35
2017-12-04T07:33:56.362Z,70.58
2017-12-04T07:36:23.993Z,70.87
2017-12-04T07:38:52.352Z,70.42
2017-12-04T07:41:21.025Z,70.52
2017-12-04T07:43:48.617Z,70.86
2017-12-04T07:46:16.619Z,71.54
2017-12-04T07:48:44.187Z,71.93
2017-12-04T07:51:12.685Z,72.50
2017-12-04T07:53:40.322Z,72.02
2017-12-04T07:56:08.091Z,71.71
2017-12-04T07:58:35.656Z,70.95
2017-12-04T08:01:03.244Z,69.31
2017-12-04T08:03:30.822Z,69.94
2017-12-04T08:05:58.632Z,69.70
2017-12-04T08:08:28.872Z,70.01
2017-12-04T08:10:56.623Z,70.24
2017-12-04T08:13:24.398Z,69.98
2017-12-04T08:15:51.971Z,70.35
2017-12-04T08:18:19.545Z,70.73
2017-12-04T08:20:47.214Z,71.26
2017-12-04T08:23:14.779Z,69.78
2017-12-04T08:25:43.373Z,69.30
2017-12-04T08:28:10.979Z,69.37
2017-12-04T08:30:38.572Z,68.25
2017-12-04T08:33:06.342Z,68.34
2017-12-04T08:35:33.870Z,68.64
2017-12-04T08:38:01.415Z,68.61
2017-12-04T08:40:29.202Z,68.75
2017-12-04T08:42:56.758Z,69.12
2017-12-04T08:45:24.425Z,69.41
2017-12-04T08:47:52.216Z,70.35
2017-12-04T08:50:19.968Z,70.88
2017-12-04T08:52:50.910Z,71.44
2017-12-04T08:55:18.561Z,71.76
2017-12-04T08:57:46.158Z,73.01
2017-12-04T09:00:14.529Z,74.78
2017-12-04T09:02:42.390Z,73.69
2017-12-04T09:05:10.166Z,73.84
2017-12-04T09:07:38.158Z,73.25
2017-12-04T09:10:05.754Z,72.30
2017-12-04T09:12:33.681Z,71.84
2017-12-04T09:15:02.229Z,70.83
2017-12-04T09:17:30.018Z,70.25
2017-12-04T09:19:58.678Z,70.64
2017-12-04T09:22:26.995Z,69.96
2017-12-04T09:24:54.872Z,70.07
2017-12-04T09:27:22.671Z,70.57
2017-12-04T09:29:50.243Z,70.36
2017-12-04T09:32:18.058Z,70.21
2017-12-04T09:34:46.551Z,70.92
2017-12-04T09:37:14.450Z,70.62
2017-12-04T09:39:42.271Z,70.61
2017-12-04T09:42:10.027Z,70.60
2017-12-04T09:44:37.817Z,70.66
2017-12-04T09:47:05.578Z,69.60
2017-12-04T09:49:33.412Z,69.15
2017-12-04T09:52:01.183Z,69.49
2017-12-04T09:54:29.002Z,69.68
2017-12-04T09:56:56.611Z,69.41
2017-12-04T09:59:24.152Z,70.82
2017-12-04T10:01:51.975Z,71.08
2017-12-04T10:04:19.781Z,71.47
2017-12-04T10:06:47.571Z,72.07
2017-12-04T10:09:15.459Z,72.17
2017-12-04T10:11:43.125Z,71.49
2017-12-04T10:14:10.713Z,70.86
2017-12-04T10:16:38.494Z,71.21
2017-12-04T10:19:06.251Z,70.93
2017-12-04T10:21:33.837Z,71.24
2017-12-04T10:24:01.386Z,71.66
2017-12-04T10:26:28.978Z,71.27
2017-12-04T10:28:57.943Z,71.29
2017-12-04T10:31:25.542Z,71.28
2017-12-04T10:33:53.104Z,70.99
2017-12-04T10:36:20.672Z,71.37
2017-12-04T10:38:48.297Z,71.25
2017-12-04T10:41:16.073Z,71.09
2017-12-04T10:43:43.878Z,70.01
2017-12-04T10:46:11.842Z,70.74
2017-12-04T10:48:41.314Z,70.18
2017-12-04T10:51:08.830Z,69.67
2017-12-04T10:53:36.866Z,69.87
2017-12-04T10:56:05.106Z,69.11
2017-12-04T10:58:32.890Z,69.20
2017-12-04T11:01:00.462Z,68.97
2017-12-04T11:03:28.043Z,67.93
2017-12-04T11:05:55.619Z,68.17
2017-12-04T11:08:23.327Z,68.23
2017-12-04T11:10:51.108Z,68.83
2017-12-04T11:13:18.693Z,68.73
2017-12-04T11:15:46.318Z,68.40
2017-12-04T11:18:14.080Z,68.24
2017-12-04T11:20:41.866Z,68.17
2017-12-04T11:23:09.454Z,68.75
2017-12-04T11:25:37.806Z,67.24
2017-12-04T11:28:05.581Z,67.15
2017-12-04T11:30:33.403Z,67.88
2017-12-04T11:33:00.942Z,67.95
2017-12-04T11:35:28.771Z,67.54
2017-12-04T11:37:56.366Z,67.26
2017-12-04T11:40:23.953Z,67.58
2017-12-04T11:42:51.752Z,67.93
2017-12-04T11:45:19.357Z,66.83
2017-12-04T11:47:47.191Z,66.50
2017-12-04T11:50:15.269Z,66.84
2017-12-04T11:52:42.929Z,66.97
2017-12-04T11:55:10.802Z,66.27
2017-12-04T11:57:38.375Z,66.26
2017-12-04T12:00:09.166Z,66.25
2017-12-04T12:02:37.286Z,65.66
2017-12-04T12:05:05.140Z,66.42
2017-12-04T12:07:32.925Z,66.05
2017-12-04T12:10:00.488Z,66.54
2017-12-04T12:12:28.089Z,65.43
2017-12-04T12:14:55.775Z,65.87
2017-12-04T12:17:23.542Z,65.88
2017-12-04T12:19:51.107Z,65.39
2017-12-04T12:22:18.698Z,65.91
2017-12-04T12:24:46.251Z,64.91
2017-12-04T12:27:14.024Z,65.34
2017-12-04T12:29:41.653Z,65.66
2017-12-04T12:32:09.237Z,65.20
2017-12-04T12:34:37.042Z,65.53
2017-12-04T12:37:04.612Z,65.28
2017-12-04T12:39:32.346Z,65.47
2017-12-04T12:42:00.097Z,64.60
2017-12-04T12:44:27.693Z,65.09
2017-12-04T12:46:55.272Z,64.64
2017-12-04T12:49:23.078Z,65.10
2017-12-04T12:51:50.861Z,64.79
2017-12-04T12:54:18.434Z,65.16
2017-12-04T12:56:46.402Z,65.15
2017-12-04T12:59:14.219Z,65.56
2017-12-04T13:01:41.885Z,65.28
2017-12-04T13:04:09.477Z,64.94
2017-12-04T13:06:36.994Z,65.05
2017-12-04T13:09:04.650Z,65.54
2017-12-04T13:11:32.376Z,65.56
2017-12-04T13:14:00.792Z,65.15
2017-12-04T13:16:28.411Z,64.68
2017-12-04T13:18:55.992Z,64.74
2017-12-04T13:21:24.581Z,65.46
2017-12-04T13:23:52.195Z,63.98
2017-12-04T13:26:19.980Z,65.03
2017-12-04T13:28:47.638Z,64.71
2017-12-04T13:31:15.622Z,64.74
2017-12-04T13:33:55.225Z,64.10
2017-12-04T13:36:34.870Z,64.74
2017-12-04T13:39:03.393Z,64.72
2017-12-04T13:41:30.960Z,65.07
2017-12-04T13:43:58.535Z,65.44
2017-12-04T13:46:26.181Z,65.04
2017-12-04T13:48:53.945Z,65.46
2017-12-04T13:51:21.507Z,64.85
2017-12-04T13:53:49.029Z,65.51
2017-12-04T13:56:17.479Z,65.10
2017-12-04T13:58:46.884Z,64.73
2017-12-04T14:01:14.606Z,65.60
2017-12-04T14:03:42.504Z,65.50
2017-12-04T14:06:10.083Z,65.53
2017-12-04T14:08:37.699Z,65.55
2017-12-04T14:11:05.454Z,65.73
2017-12-04T14:13:32.973Z,65.86
2017-12-04T14:16:00.971Z,65.81
2017-12-04T14:18:28.748Z,65.93
2017-12-04T14:20:56.562Z,65.87
2017-12-04T14:23:24.395Z,65.62
2017-12-04T14:25:51.962Z,65.19
2017-12-04T14:28:19.743Z,66.07
2017-12-04T14:30:47.388Z,65.90
2017-12-04T14:33:15.182Z,65.90
2017-12-04T14:35:42.790Z,66.01
2017-12-04T14:38:10.325Z,66.26
2017-12-04T14:40:38.332Z,66.30
2017-12-04T14:43:06.129Z,66.69
2017-12-04T14:45:33.732Z,66.96
2017-12-04T14:48:01.492Z,66.97
2017-12-04T14:50:29.279Z,67.06
2017-12-04T14:52:56.862Z,66.63
2017-12-04T14:55:25.193Z,66.90
2017-12-04T14:57:52.842Z,66.79
2017-12-04T15:00:20.401Z,66.86
2017-12-04T15:02:47.970Z,66.68
2017-12-04T15:05:15.554Z,66.84
2017-12-04T15:07:43.357Z,66.37
2017-12-04T15:10:11.161Z,66.72
2017-12-04T15:12:39.550Z,66.85
2017-12-04T15:15:07.351Z,66.62
2017-12-04T15:17:35.022Z,66.37
2017-12-04T15:20:02.641Z,66.73
2017-12-04T15:26:53.614Z,67.13
2017-12-04T15:29:21.359Z,67.15
2017-12-04T15:31:48.929Z,67.58
2017-12-04T15:34:17.303Z,67.22
2017-12-04T15:36:45.076Z,67.46
2017-12-04T15:39:13.219Z,67.29
2017-12-04T15:41:41.011Z,67.23
2017-12-04T15:44:08.569Z,67.61
2017-12-04T15:46:36.181Z,67.45
2017-12-04T15:49:03.750Z,67.22
2017-12-04T15:51:31.666Z,67.14
2017-12-04T15:53:59.885Z,67.10
2017-12-04T15:56:28.340Z,67.16
2017-12-04T15:58:55.907Z,67.34
2017-12-04T16:01:23.492Z,67.38
2017-12-04T16:03:51.105Z,67.18
2017-12-04T16:06:18.854Z,67.20
2017-12-04T16:08:46.624Z,66.87
2017-12-04T16:11:14.398Z,67.21
2017-12-04T16:13:42.046Z,67.31
2017-12-04T16:16:09.642Z,67.60
2017-12-04T16:18:37.174Z,67.94
2017-12-04T16:21:05.036Z,67.25
2017-12-04T16:23:32.667Z,67.72
2017-12-04T16:26:00.293Z,67.75
2017-12-04T16:28:28.159Z,67.42
2017-12-04T16:30:56.205Z,67.40
2017-12-04T16:33:23.858Z,87.27
2017-12-04T16:35:51.622Z,70.80
2017-12-04T16:38:19.741Z,66.85
2017-12-04T16:40:47.355Z,66.36
2017-12-04T16:43:14.957Z,66.69
2017-12-04T16:45:44.315Z,66.58
2017-12-04T16:48:15.262Z,66.67
2017-12-04T16:50:44.018Z,66.38
2017-12-04T16:53:11.666Z,66.18
2017-12-04T16:55:39.913Z,66.71
2017-12-04T16:58:07.459Z,66.72
2017-12-04T17:00:35.914Z,66.80
2017-12-04T17:03:03.902Z,66.70
2017-12-04T17:05:31.442Z,66.67
2017-12-04T17:07:59.030Z,66.80
2017-12-04T17:10:26.805Z,67.02
2017-12-04T17:12:54.426Z,66.84
2017-12-04T17:15:23.042Z,66.61
2017-12-04T17:17:50.854Z,66.42
2017-12-04T17:20:20.094Z,66.60
2017-12-04T17:22:47.799Z,66.24
2017-12-04T17:25:15.369Z,66.39
2017-12-04T17:27:43.150Z,66.19
2017-12-04T17:30:10.770Z,65.80
2017-12-04T17:32:38.329Z,65.84
2017-12-04T17:35:06.077Z,65.53
2017-12-04T17:37:33.765Z,65.78
2017-12-04T17:40:01.527Z,65.99
2017-12-04T17:42:29.325Z,65.46
2017-12-04T17:44:57.426Z,65.28
2017-12-04T17:47:25.047Z,65.24
2017-12-04T17:49:52.818Z,65.26
2017-12-04T17:52:20.448Z,65.62
2017-12-04T17:54:47.990Z,65.08
2017-12-04T17:57:15.714Z,64.79
2017-12-04T17:59:43.342Z,64.75
2017-12-04T18:02:11.202Z,64.35
2017-12-04T18:04:38.732Z,64.49
2017-12-04T18:07:07.190Z,64.56
2017-12-04T18:09:34.960Z,64.75
2017-12-04T18:12:02.782Z,64.44
2017-12-04T18:14:30.639Z,64.08
2017-12-04T18:16:59.476Z,64.51
2017-12-04T18:19:28.986Z,64.46
2017-12-04T18:21:58.532Z,64.12
2017-12-04T18:24:30.351Z,64.28
2017-12-04T18:27:00.871Z,64.32
2017-12-04T18:29:35.433Z,63.67
2017-12-04T18:32:03.414Z,64.46
2017-12-04T18:34:35.231Z,63.99
2017-12-04T18:37:02.838Z,63.95
2017-12-04T18:39:32.232Z,63.91
2017-12-04T18:41:59.883Z,63.58
2017-12-04T18:44:28.281Z,64.00
2017-12-04T18:46:56.021Z,63.74
2017-12-04T18:49:25.778Z,63.63
2017-12-04T18:51:53.505Z,63.67
2017-12-04T18:54:21.218Z,63.39
2017-12-04T18:56:48.867Z,63.70
2017-12-04T18:59:17.204Z,63.20
2017-12-04T19:01:46.686Z,63.30
2017-12-04T19:04:14.393Z,72.73
2017-12-04T19:06:42.430Z,71.90
2017-12-04T19:09:17.699Z,76.85
2017-12-04T19:11:45.874Z,69.58
2017-12-04T19:14:16.345Z,62.81
2017-12-04T19:17:01.469Z,61.79
2017-12-04T19:19:31.340Z,61.89
2017-12-04T19:21:59.815Z,61.83
2017-12-04T19:24:27.629Z,61.45
2017-12-04T19:27:00.711Z,61.75
2017-12-04T19:29:36.651Z,61.72
2017-12-04T19:35:21.881Z,61.74
2017-12-04T19:37:49.594Z,62.23
2017-12-04T19:40:17.323Z,62.39
2017-12-04T19:42:45.048Z,62.30
2017-12-04T19:45:12.807Z,62.46
2017-12-04T19:47:41.995Z,62.13
2017-12-04T19:50:09.620Z,62.14
2017-12-04T19:52:38.212Z,62.61
2017-12-04T19:55:06.034Z,62.74
2017-12-04T19:57:41.465Z,62.21
2017-12-04T20:00:09.974Z,62.73
2017-12-04T20:02:38.496Z,62.62
2017-12-04T20:05:10.484Z,62.65
2017-12-04T20:07:45.533Z,62.95
2017-12-04T20:27:33.557Z,62.90
2017-12-04T20:30:01.253Z,63.23
2017-12-04T20:32:29.178Z,62.79
2017-12-04T20:34:59.220Z,63.18
2017-12-04T20:37:27.562Z,63.44
2017-12-04T20:39:55.472Z,62.63
2017-12-04T20:42:24.206Z,62.91
2017-12-04T20:44:51.950Z,62.67
2017-12-04T20:47:28.019Z,62.53
2017-12-04T20:50:03.532Z,62.68
2017-12-04T20:52:31.424Z,62.42
2017-12-04T20:54:59.088Z,62.62
2017-12-04T20:57:27.969Z,62.37
2017-12-04T20:59:58.290Z,62.88
2017-12-04T21:02:34.469Z,62.98
2017-12-04T21:05:02.873Z,63.17
2017-12-04T21:07:31.335Z,63.19
2017-12-04T21:10:10.947Z,63.42
2017-12-04T21:12:38.616Z,63.77
2017-12-04T21:15:18.106Z,63.60
2017-12-04T21:17:45.949Z,63.77
2017-12-04T21:20:19.878Z,63.28
2017-12-04T21:22:49.138Z,63.45
2017-12-04T21:29:00.786Z,63.15
2017-12-04T21:38:30.798Z,62.67
2017-12-04T21:41:04.778Z,62.30
2017-12-04T21:43:52.234Z,63.15
2017-12-04T21:56:25.938Z,62.64
2017-12-04T21:58:55.196Z,62.78
2017-12-04T22:01:23.512Z,62.77
2017-12-04T22:06:24.042Z,62.87
2017-12-04T22:11:26.940Z,62.40
2017-12-04T22:13:54.692Z,62.27
2017-12-04T22:16:22.346Z,62.67
2017-12-04T22:18:49.973Z,62.31
2017-12-04T22:21:18.359Z,62.48
2017-12-04T22:23:45.942Z,63.27
2017-12-04T22:26:40.573Z,63.24
